sensor_id;sensor_type;location;lat;lon;timestamp;pressure;altitude;pressure_sealevel;temperature;humidity
42691;BME280;28306;55.744;37.578;2023-06-24T11:53:02;99483.56;;;27.86;29.51
42691;BME280;28306;55.744;37.578;2023-06-24T11:55:28;99487.38;;;27.91;29.48
42691;BME280;28306;55.744;37.578;2023-06-24T11:57:58;99493.03;;;27.99;29.45
42691;BME280;28306;55.744;37.578;2023-06-24T12:00:28;99492.53;;;27.97;29.25
42691;BME280;28306;55.744;37.578;2023-06-24T12:02:54;99495.28;;;27.92;29.22
42691;BME280;28306;55.744;37.578;2023-06-24T12:05:22;99492.91;;;27.85;29.38
42691;BME280;28306;55.744;37.578;2023-06-24T12:07:51;99492.13;;;27.80;29.35
42691;BME280;28306;55.744;37.578;2023-06-24T12:10:17;99490.25;;;27.75;29.37
42691;BME280;28306;55.744;37.578;2023-06-24T12:12:42;99502.56;;;27.73;29.51
42691;BME280;28306;55.744;37.578;2023-06-24T12:15:08;99504.78;;;27.71;29.55
42691;BME280;28306;55.744;37.578;2023-06-24T12:17:33;99508.31;;;27.71;29.41
42691;BME280;28306;55.744;37.578;2023-06-24T12:19:59;99498.53;;;27.70;29.55
42691;BME280;28306;55.744;37.578;2023-06-24T12:22:24;99496.34;;;27.67;29.54
42691;BME280;28306;55.744;37.578;2023-06-24T12:24:50;99503.50;;;27.63;29.55
42691;BME280;28306;55.744;37.578;2023-06-24T12:27:15;99515.28;;;27.58;29.46
42691;BME280;28306;55.744;37.578;2023-06-24T12:29:40;99509.59;;;27.55;29.72
42691;BME280;28306;55.744;37.578;2023-06-24T12:32:06;99512.38;;;27.49;29.75
42691;BME280;28306;55.744;37.578;2023-06-24T12:34:32;99523.88;;;27.46;29.71
42691;BME280;28306;55.744;37.578;2023-06-24T12:36:57;99514.59;;;27.42;30.04
42691;BME280;28306;55.744;37.578;2023-06-24T12:39:23;99510.22;;;27.41;29.81
42691;BME280;28306;55.744;37.578;2023-06-24T12:41:48;99521.44;;;27.40;29.99
42691;BME280;28306;55.744;37.578;2023-06-24T12:44:14;99524.19;;;27.40;29.94
42691;BME280;28306;55.744;37.578;2023-06-24T12:46:40;99521.44;;;27.40;29.92
42691;BME280;28306;55.744;37.578;2023-06-24T12:49:05;99519.53;;;27.40;29.75
42691;BME280;28306;55.744;37.578;2023-06-24T12:51:31;99517.63;;;27.41;29.81
42691;BME280;28306;55.744;37.578;2023-06-24T12:53:56;99521.44;;;27.40;29.70
42691;BME280;28306;55.744;37.578;2023-06-24T12:56:22;99512.72;;;27.38;29.67
42691;BME280;28306;55.744;37.578;2023-06-24T12:58:47;99515.22;;;27.34;29.88
42691;BME280;28306;55.744;37.578;2023-06-24T13:01:13;99522.06;;;27.31;29.85
42691;BME280;28306;55.744;37.578;2023-06-24T13:03:38;99531.63;;;27.29;29.96
42691;BME280;28306;55.744;37.578;2023-06-24T13:06:04;99528.34;;;27.27;29.87
42691;BME280;28306;55.744;37.578;2023-06-24T13:08:29;99528.09;;;27.23;30.09
42691;BME280;28306;55.744;37.578;2023-06-24T13:10:55;99527.59;;;27.21;29.95
42691;BME280;28306;55.744;37.578;2023-06-24T13:13:20;99538.78;;;27.20;30.00
42691;BME280;28306;55.744;37.578;2023-06-24T13:15:45;99540.69;;;27.19;29.98
42691;BME280;28306;55.744;37.578;2023-06-24T13:18:11;99537.97;;;27.19;29.83
42691;BME280;28306;55.744;37.578;2023-06-24T13:20:36;99537.66;;;27.21;29.99
42691;BME280;28306;55.744;37.578;2023-06-24T13:23:02;99540.09;;;27.32;29.75
42691;BME280;28306;55.744;37.578;2023-06-24T13:25:27;99533.19;;;27.75;29.68
42691;BME280;28306;55.744;37.578;2023-06-24T13:27:53;99532.00;;;28.64;28.66
42691;BME280;28306;55.744;37.578;2023-06-24T13:30:19;99539.06;;;29.08;28.30
42691;BME280;28306;55.744;37.578;2023-06-24T13:32:44;99539.94;;;30.07;27.65
42691;BME280;28306;55.744;37.578;2023-06-24T13:35:10;99540.50;;;30.87;26.91
42691;BME280;28306;55.744;37.578;2023-06-24T13:37:36;99538.03;;;31.36;26.80
42691;BME280;28306;55.744;37.578;2023-06-24T13:40:04;99539.66;;;31.15;26.67
42691;BME280;28306;55.744;37.578;2023-06-24T13:42:29;99546.72;;;31.07;26.76
42691;BME280;28306;55.744;37.578;2023-06-24T13:44:55;99551.94;;;30.67;26.92
42691;BME280;28306;55.744;37.578;2023-06-24T13:47:20;99547.47;;;30.29;27.20
42691;BME280;28306;55.744;37.578;2023-06-24T13:49:47;99546.22;;;29.94;27.57
42691;BME280;28306;55.744;37.578;2023-06-24T13:52:13;99546.13;;;29.66;27.72
42691;BME280;28306;55.744;37.578;2023-06-24T13:54:38;99553.84;;;29.45;27.92
42691;BME280;28306;55.744;37.578;2023-06-24T13:57:03;99552.78;;;29.27;28.07
42691;BME280;28306;55.744;37.578;2023-06-24T13:59:29;99557.25;;;29.18;27.91
42691;BME280;28306;55.744;37.578;2023-06-24T14:01:54;99560.31;;;29.16;27.88
42691;BME280;28306;55.744;37.578;2023-06-24T14:04:20;99554.00;;;29.16;28.03
42691;BME280;28306;55.744;37.578;2023-06-24T14:06:45;99559.78;;;29.14;28.04
42691;BME280;28306;55.744;37.578;2023-06-24T14:09:12;99567.78;;;29.10;28.15
42691;BME280;28306;55.744;37.578;2023-06-24T14:11:37;99561.56;;;29.05;28.07
42691;BME280;28306;55.744;37.578;2023-06-24T14:14:03;99557.28;;;28.99;27.94
42691;BME280;28306;55.744;37.578;2023-06-24T14:16:28;99565.03;;;28.91;28.09
42691;BME280;28306;55.744;37.578;2023-06-24T14:18:54;99559.13;;;28.84;28.20
42691;BME280;28306;55.744;37.578;2023-06-24T14:21:19;99563.03;;;28.78;28.20
42691;BME280;28306;55.744;37.578;2023-06-24T14:23:44;99560.13;;;28.88;27.94
42691;BME280;28306;55.744;37.578;2023-06-24T14:26:10;99563.72;;;29.08;28.03
42691;BME280;28306;55.744;37.578;2023-06-24T14:28:35;99562.03;;;29.83;27.46
42691;BME280;28306;55.744;37.578;2023-06-24T14:31:01;99551.44;;;30.65;26.66
42691;BME280;28306;55.744;37.578;2023-06-24T14:33:26;99559.97;;;31.27;26.19
42691;BME280;28306;55.744;37.578;2023-06-24T14:35:52;99546.47;;;31.54;25.96
42691;BME280;28306;55.744;37.578;2023-06-24T14:38:17;99539.44;;;31.70;26.00
42691;BME280;28306;55.744;37.578;2023-06-24T14:40:43;99540.63;;;32.09;25.59
42691;BME280;28306;55.744;37.578;2023-06-24T14:43:08;99544.81;;;32.47;25.10
42691;BME280;28306;55.744;37.578;2023-06-24T14:45:33;99543.94;;;32.78;25.18
42691;BME280;28306;55.744;37.578;2023-06-24T14:47:59;99546.41;;;32.97;24.92
42691;BME280;28306;55.744;37.578;2023-06-24T14:50:24;99542.81;;;32.96;24.84
42691;BME280;28306;55.744;37.578;2023-06-24T14:52:50;99557.72;;;33.04;24.60
42691;BME280;28306;55.744;37.578;2023-06-24T14:55:15;99555.81;;;33.04;24.49
42691;BME280;28306;55.744;37.578;2023-06-24T14:57:41;99554.31;;;32.81;24.85
42691;BME280;28306;55.744;37.578;2023-06-24T15:00:06;99555.66;;;32.43;25.11
42691;BME280;28306;55.744;37.578;2023-06-24T15:02:32;99547.78;;;32.10;25.17
42691;BME280;28306;55.744;37.578;2023-06-24T15:04:58;99555.91;;;31.93;25.39
42691;BME280;28306;55.744;37.578;2023-06-24T15:07:23;99540.84;;;31.68;25.47
42691;BME280;28306;55.744;37.578;2023-06-24T15:09:49;99548.78;;;31.47;25.57
42691;BME280;28306;55.744;37.578;2023-06-24T15:12:14;99550.84;;;31.41;25.63
42691;BME280;28306;55.744;37.578;2023-06-24T15:14:40;99552.88;;;31.49;25.57
42691;BME280;28306;55.744;37.578;2023-06-24T15:17:05;99560.28;;;31.49;25.51
42691;BME280;28306;55.744;37.578;2023-06-24T15:19:31;99562.22;;;31.48;25.57
42691;BME280;28306;55.744;37.578;2023-06-24T15:21:56;99564.03;;;31.30;25.58
42691;BME280;28306;55.744;37.578;2023-06-24T15:24:22;99570.38;;;31.17;25.68
42691;BME280;28306;55.744;37.578;2023-06-24T15:26:47;99569.50;;;31.07;25.84
42691;BME280;28306;55.744;37.578;2023-06-24T15:29:13;99566.97;;;30.97;25.58
42691;BME280;28306;55.744;37.578;2023-06-24T15:31:38;99568.91;;;30.97;25.86
42691;BME280;28306;55.744;37.578;2023-06-24T15:34:03;99572.47;;;30.97;25.54
42691;BME280;28306;55.744;37.578;2023-06-24T15:36:29;99556.91;;;30.93;25.57
42691;BME280;28306;55.744;37.578;2023-06-24T15:38:55;99556.59;;;30.94;25.92
42691;BME280;28306;55.744;37.578;2023-06-24T15:41:20;99562.69;;;30.91;25.70
42691;BME280;28306;55.744;37.578;2023-06-24T15:43:46;99569.03;;;30.78;25.78
42691;BME280;28306;55.744;37.578;2023-06-24T15:46:11;99559.69;;;30.65;25.77
42691;BME280;28306;55.744;37.578;2023-06-24T15:48:37;99565.38;;;30.54;25.95
42691;BME280;28306;55.744;37.578;2023-06-24T15:51:03;99568.72;;;30.51;25.83
42691;BME280;28306;55.744;37.578;2023-06-24T15:53:28;99562.56;;;30.46;26.09
42691;BME280;28306;55.744;37.578;2023-06-24T15:55:53;99556.34;;;30.40;26.05
42691;BME280;28306;55.744;37.578;2023-06-24T15:58:19;99553.97;;;30.33;26.04
42691;BME280;28306;55.744;37.578;2023-06-24T16:00:44;99562.94;;;30.25;26.03
42691;BME280;28306;55.744;37.578;2023-06-24T16:03:10;99564.13;;;30.19;26.09
42691;BME280;28306;55.744;37.578;2023-06-24T16:05:35;99564.31;;;30.09;26.26
42691;BME280;28306;55.744;37.578;2023-06-24T16:08:01;99573.56;;;29.99;26.33
42691;BME280;28306;55.744;37.578;2023-06-24T16:10:27;99575.06;;;29.91;26.34
42691;BME280;28306;55.744;37.578;2023-06-24T16:12:53;99588.88;;;29.86;26.39
42691;BME280;28306;55.744;37.578;2023-06-24T16:15:20;99592.50;;;29.81;26.33
42691;BME280;28306;55.744;37.578;2023-06-24T16:17:45;99581.56;;;29.76;26.44
42691;BME280;28306;55.744;37.578;2023-06-24T16:20:11;99585.22;;;29.72;26.50
42691;BME280;28306;55.744;37.578;2023-06-24T16:22:39;99582.56;;;29.66;26.60
42691;BME280;28306;55.744;37.578;2023-06-24T16:25:04;99583.75;;;29.60;26.61
42691;BME280;28306;55.744;37.578;2023-06-24T16:27:30;99587.69;;;29.54;26.44
42691;BME280;28306;55.744;37.578;2023-06-24T16:29:55;99577.13;;;29.47;26.65
42691;BME280;28306;55.744;37.578;2023-06-24T16:32:21;99574.75;;;29.41;26.73
42691;BME280;28306;55.744;37.578;2023-06-24T16:34:46;99572.38;;;29.34;26.76
42691;BME280;28306;55.744;37.578;2023-06-24T16:37:12;99566.19;;;29.28;26.77
42691;BME280;28306;55.744;37.578;2023-06-24T16:39:37;99569.81;;;29.24;26.83
42691;BME280;28306;55.744;37.578;2023-06-24T16:42:03;99562.75;;;29.18;26.76
42691;BME280;28306;55.744;37.578;2023-06-24T16:44:29;99561.69;;;29.13;27.01
42691;BME280;28306;55.744;37.578;2023-06-24T16:46:57;99564.53;;;29.08;27.08
42691;BME280;28306;55.744;37.578;2023-06-24T16:49:23;99561.56;;;29.05;27.09
42691;BME280;28306;55.744;37.578;2023-06-24T16:51:48;99566.00;;;29.01;26.97
42691;BME280;28306;55.744;37.578;2023-06-24T16:54:14;99569.31;;;28.98;27.10
42691;BME280;28306;55.744;37.578;2023-06-24T16:56:39;99563.63;;;28.94;27.37
42691;BME280;28306;55.744;37.578;2023-06-24T16:59:05;99566.16;;;28.90;27.25
42691;BME280;28306;55.744;37.578;2023-06-24T17:01:30;99576.84;;;28.87;27.02
42691;BME280;28306;55.744;37.578;2023-06-24T17:03:58;99573.91;;;28.83;27.17
42691;BME280;28306;55.744;37.578;2023-06-24T17:06:23;99583.81;;;28.79;27.42
42691;BME280;28306;55.744;37.578;2023-06-24T17:08:49;99577.31;;;28.75;27.50
42691;BME280;28306;55.744;37.578;2023-06-24T17:11:14;99583.66;;;28.70;27.54
42691;BME280;28306;55.744;37.578;2023-06-24T17:13:40;99588.38;;;28.65;27.51
42691;BME280;28306;55.744;37.578;2023-06-24T17:16:05;99598.28;;;28.61;27.59
42691;BME280;28306;55.744;37.578;2023-06-24T17:18:31;99593.38;;;28.57;27.62
42691;BME280;28306;55.744;37.578;2023-06-24T17:20:57;99598.59;;;28.54;27.58
42691;BME280;28306;55.744;37.578;2023-06-24T17:23:22;99601.38;;;28.49;27.66
42691;BME280;28306;55.744;37.578;2023-06-24T17:25:49;99600.31;;;28.45;27.61
42691;BME280;28306;55.744;37.578;2023-06-24T17:28:14;99610.25;;;28.40;27.77
42691;BME280;28306;55.744;37.578;2023-06-24T17:30:40;99609.19;;;28.36;27.85
42691;BME280;28306;55.744;37.578;2023-06-24T17:33:05;99616.31;;;28.32;27.84
42691;BME280;28306;55.744;37.578;2023-06-24T17:35:30;99621.56;;;28.29;28.11
42691;BME280;28306;55.744;37.578;2023-06-24T17:37:56;99618.59;;;28.25;28.05
42691;BME280;28306;55.744;37.578;2023-06-24T17:40:21;99631.22;;;28.21;28.13
42691;BME280;28306;55.744;37.578;2023-06-24T17:42:47;99622.78;;;28.17;28.34
42691;BME280;28306;55.744;37.578;2023-06-24T17:45:12;99617.88;;;28.14;28.31
42691;BME280;28306;55.744;37.578;2023-06-24T17:47:38;99627.47;;;28.12;28.29
42691;BME280;28306;55.744;37.578;2023-06-24T17:50:03;99626.16;;;28.09;28.32
42691;BME280;28306;55.744;37.578;2023-06-24T17:52:29;99629.75;;;28.04;28.49
42691;BME280;28306;55.744;37.578;2023-06-24T17:54:55;99636.59;;;28.02;28.66
42691;BME280;28306;55.744;37.578;2023-06-24T17:57:20;99630.88;;;27.98;28.63
42691;BME280;28306;55.744;37.578;2023-06-24T17:59:46;99638.56;;;27.96;28.55
42691;BME280;28306;55.744;37.578;2023-06-24T18:02:11;99632.00;;;27.92;28.70
42691;BME280;28306;55.744;37.578;2023-06-24T18:04:37;99631.78;;;27.89;28.80
42691;BME280;28306;55.744;37.578;2023-06-24T18:07:02;99635.88;;;27.86;28.81
42691;BME280;28306;55.744;37.578;2023-06-24T18:09:28;99643.00;;;27.82;28.92
42691;BME280;28306;55.744;37.578;2023-06-24T18:11:53;99638.09;;;27.79;28.75
42691;BME280;28306;55.744;37.578;2023-06-24T18:14:19;99634.06;;;27.76;28.98
42691;BME280;28306;55.744;37.578;2023-06-24T18:16:48;99637.34;;;27.73;28.97
42691;BME280;28306;55.744;37.578;2023-06-24T18:19:14;99639.00;;;27.69;29.13
42691;BME280;28306;55.744;37.578;2023-06-24T18:21:39;99640.38;;;27.66;28.91
42691;BME280;28306;55.744;37.578;2023-06-24T18:24:05;99638.25;;;27.63;29.22
42691;BME280;28306;55.744;37.578;2023-06-24T18:26:31;99648.91;;;27.60;29.08
42691;BME280;28306;55.744;37.578;2023-06-24T18:28:56;99648.66;;;27.56;29.08
42691;BME280;28306;55.744;37.578;2023-06-24T18:31:23;99646.50;;;27.53;29.02
42691;BME280;28306;55.744;37.578;2023-06-24T18:33:48;99647.88;;;27.50;29.24
42691;BME280;28306;55.744;37.578;2023-06-24T18:36:14;99654.75;;;27.48;29.19
42691;BME280;28306;55.744;37.578;2023-06-24T18:38:39;99658.03;;;27.45;29.42
42691;BME280;28306;55.744;37.578;2023-06-24T18:41:05;99656.69;;;27.42;29.23
42691;BME280;28306;55.744;37.578;2023-06-24T18:43:30;99660.50;;;27.41;29.29
42691;BME280;28306;55.744;37.578;2023-06-24T18:45:56;99666.53;;;27.38;29.14
42691;BME280;28306;55.744;37.578;2023-06-24T18:48:21;99673.13;;;27.37;29.21
42691;BME280;28306;55.744;37.578;2023-06-24T18:50:47;99660.00;;;27.34;29.37
42691;BME280;28306;55.744;37.578;2023-06-24T18:53:12;99668.50;;;27.32;29.25
42691;BME280;28306;55.744;37.578;2023-06-24T18:55:38;99672.31;;;27.31;29.34
42691;BME280;28306;55.744;37.578;2023-06-24T18:58:03;99670.94;;;27.29;29.32
42691;BME280;28306;55.744;37.578;2023-06-24T19:00:29;99677.50;;;27.28;29.33
42691;BME280;28306;55.744;37.578;2023-06-24T19:02:55;99675.03;;;27.26;29.17
42691;BME280;28306;55.744;37.578;2023-06-24T19:05:20;99674.53;;;27.24;29.35
42691;BME280;28306;55.744;37.578;2023-06-24T19:07:46;99685.72;;;27.23;29.32
42691;BME280;28306;55.744;37.578;2023-06-24T19:10:11;99687.09;;;27.20;29.54
42691;BME280;28306;55.744;37.578;2023-06-24T19:12:37;99687.66;;;27.17;29.46
42691;BME280;28306;55.744;37.578;2023-06-24T19:15:03;99685.19;;;27.15;29.29
42691;BME280;28306;55.744;37.578;2023-06-24T19:17:28;99684.66;;;27.13;29.50
42691;BME280;28306;55.744;37.578;2023-06-24T19:19:54;99686.84;;;27.11;29.53
42691;BME280;28306;55.744;37.578;2023-06-24T19:22:19;99680.03;;;27.09;29.65
42691;BME280;28306;55.744;37.578;2023-06-24T19:24:44;99687.69;;;27.07;29.61
42691;BME280;28306;55.744;37.578;2023-06-24T19:27:10;99693.41;;;27.05;29.59
42691;BME280;28306;55.744;37.578;2023-06-24T19:29:35;99688.50;;;27.02;29.69
42691;BME280;28306;55.744;37.578;2023-06-24T19:32:01;99693.16;;;27.02;29.70
42691;BME280;28306;55.744;37.578;2023-06-24T19:34:26;99689.09;;;26.99;29.65
42691;BME280;28306;55.744;37.578;2023-06-24T19:36:52;99690.19;;;26.98;29.57
42691;BME280;28306;55.744;37.578;2023-06-24T19:39:20;99695.94;;;26.96;29.63
42691;BME280;28306;55.744;37.578;2023-06-24T19:41:45;99693.47;;;26.95;29.62
42691;BME280;28306;55.744;37.578;2023-06-24T19:44:11;99693.75;;;26.93;29.64
42691;BME280;28306;55.744;37.578;2023-06-24T19:46:36;99690.22;;;26.93;29.71
42691;BME280;28306;55.744;37.578;2023-06-24T19:49:02;99696.75;;;26.92;29.61
42691;BME280;28306;55.744;37.578;2023-06-24T19:51:28;99699.75;;;26.90;29.80
42691;BME280;28306;55.744;37.578;2023-06-24T19:53:54;99703.56;;;26.89;29.67
42691;BME280;28306;55.744;37.578;2023-06-24T19:56:20;99698.13;;;26.89;29.66
42691;BME280;28306;55.744;37.578;2023-06-24T19:58:45;99684.75;;;26.88;29.73
42691;BME280;28306;55.744;37.578;2023-06-24T20:01:11;99689.41;;;26.87;29.66
42691;BME280;28306;55.744;37.578;2023-06-24T20:03:36;99686.66;;;26.87;29.83
42691;BME280;28306;55.744;37.578;2023-06-24T20:06:02;99686.94;;;26.86;29.69
42691;BME280;28306;55.744;37.578;2023-06-24T20:08:27;99689.16;;;26.84;29.81
42691;BME280;28306;55.744;37.578;2023-06-24T20:10:53;99694.88;;;26.82;29.88
42691;BME280;28306;55.744;37.578;2023-06-24T20:13:18;99699.50;;;26.82;29.72
42691;BME280;28306;55.744;37.578;2023-06-24T20:15:44;99693.50;;;26.79;29.76
42691;BME280;28306;55.744;37.578;2023-06-24T20:18:10;99690.25;;;26.77;29.65
42691;BME280;28306;55.744;37.578;2023-06-24T20:20:36;99692.41;;;26.75;29.96
42691;BME280;28306;55.744;37.578;2023-06-24T20:23:01;99691.63;;;26.75;29.99
42691;BME280;28306;55.744;37.578;2023-06-24T20:25:27;99683.69;;;26.73;29.89
42691;BME280;28306;55.744;37.578;2023-06-24T20:27:52;99697.63;;;26.72;30.14
42691;BME280;28306;55.744;37.578;2023-06-24T20:30:18;99688.91;;;26.70;29.87
42691;BME280;28306;55.744;37.578;2023-06-24T20:36:15;99699.25;;;26.68;29.92
42691;BME280;28306;55.744;37.578;2023-06-24T20:38:40;99699.56;;;26.66;30.13
42691;BME280;28306;55.744;37.578;2023-06-24T20:41:06;99698.72;;;26.66;30.40
42691;BME280;28306;55.744;37.578;2023-06-24T20:43:31;99704.44;;;26.64;30.49
42691;BME280;28306;55.744;37.578;2023-06-24T20:45:57;99706.34;;;26.64;30.54
42691;BME280;28306;55.744;37.578;2023-06-24T20:48:22;99707.16;;;26.64;30.69
42691;BME280;28306;55.744;37.578;2023-06-24T20:50:49;99705.53;;;26.63;30.54
42691;BME280;28306;55.744;37.578;2023-06-24T20:53:14;99705.53;;;26.63;30.45
42691;BME280;28306;55.744;37.578;2023-06-24T20:55:41;99699.25;;;26.62;30.45
42691;BME280;28306;55.744;37.578;2023-06-24T20:58:07;99701.16;;;26.62;30.37
42691;BME280;28306;55.744;37.578;2023-06-24T21:00:33;99714.81;;;26.62;30.46
42691;BME280;28306;55.744;37.578;2023-06-24T21:02:58;99706.91;;;26.60;30.51
42691;BME280;28306;55.744;37.578;2023-06-24T21:05:24;99714.28;;;26.60;30.53
42691;BME280;28306;55.744;37.578;2023-06-24T21:07:52;99713.72;;;26.58;30.68
42691;BME280;28306;55.744;37.578;2023-06-24T21:10:19;99712.91;;;26.57;30.37
42691;BME280;28306;55.744;37.578;2023-06-24T21:12:45;99724.91;;;26.56;30.58
42691;BME280;28306;55.744;37.578;2023-06-24T21:15:17;99719.72;;;26.55;30.51
42691;BME280;28306;55.744;37.578;2023-06-24T21:17:43;99720.84;;;26.54;30.44
42691;BME280;28306;55.744;37.578;2023-06-24T21:20:09;99717.53;;;26.52;30.69
42691;BME280;28306;55.744;37.578;2023-06-24T21:22:35;99714.81;;;26.52;30.47
42691;BME280;28306;55.744;37.578;2023-06-24T21:25:06;99717.81;;;26.50;30.73
42691;BME280;28306;55.744;37.578;2023-06-24T21:27:35;99716.19;;;26.49;30.75
42691;BME280;28306;55.744;37.578;2023-06-24T21:30:04;99713.75;;;26.48;30.42
42691;BME280;28306;55.744;37.578;2023-06-24T21:32:38;99721.09;;;26.47;30.75
42691;BME280;28306;55.744;37.578;2023-06-24T21:35:07;99720.28;;;26.47;30.77
42691;BME280;28306;55.744;37.578;2023-06-24T21:37:36;99724.09;;;26.46;30.76
42691;BME280;28306;55.744;37.578;2023-06-24T21:40:01;99725.22;;;26.44;30.62
42691;BME280;28306;55.744;37.578;2023-06-24T21:42:27;99721.38;;;26.46;30.46
42691;BME280;28306;55.744;37.578;2023-06-24T21:44:52;99721.63;;;26.44;30.63
42691;BME280;28306;55.744;37.578;2023-06-24T21:47:17;99726.28;;;26.43;30.68
42691;BME280;28306;55.744;37.578;2023-06-24T21:49:43;99717.28;;;26.43;30.72
42691;BME280;28306;55.744;37.578;2023-06-24T21:52:08;99720.03;;;26.43;30.55
42691;BME280;28306;55.744;37.578;2023-06-24T21:54:34;99720.03;;;26.43;30.49
42691;BME280;28306;55.744;37.578;2023-06-24T21:56:59;99725.47;;;26.43;30.65
42691;BME280;28306;55.744;37.578;2023-06-24T21:59:25;99721.91;;;26.42;30.66
42691;BME280;28306;55.744;37.578;2023-06-24T22:01:52;99723.03;;;26.41;30.63
42691;BME280;28306;55.744;37.578;2023-06-24T22:04:18;99721.09;;;26.42;30.56
42691;BME280;28306;55.744;37.578;2023-06-24T22:06:43;99723.03;;;26.41;30.66
42691;BME280;28306;55.744;37.578;2023-06-24T22:09:09;99726.84;;;26.40;30.54
42691;BME280;28306;55.744;37.578;2023-06-24T22:11:34;99730.66;;;26.39;30.73
42691;BME280;28306;55.744;37.578;2023-06-24T22:14:00;99730.09;;;26.37;30.56
42691;BME280;28306;55.744;37.578;2023-06-24T22:16:25;99729.31;;;26.37;30.58
42691;BME280;28306;55.744;37.578;2023-06-24T22:18:51;99731.19;;;26.36;30.63
42691;BME280;28306;55.744;37.578;2023-06-24T22:21:16;99733.09;;;26.36;30.53
42691;BME280;28306;55.744;37.578;2023-06-24T22:23:44;99730.66;;;26.34;30.68
42691;BME280;28306;55.744;37.578;2023-06-24T22:26:09;99738.03;;;26.34;30.64
42691;BME280;28306;55.744;37.578;2023-06-24T22:28:34;99739.09;;;26.33;30.55
42691;BME280;28306;55.744;37.578;2023-06-24T22:31:00;99737.50;;;26.32;30.69
42691;BME280;28306;55.744;37.578;2023-06-24T22:33:25;99740.22;;;26.32;30.68
42691;BME280;28306;55.744;37.578;2023-06-24T22:35:51;99732.31;;;26.30;30.54
42691;BME280;28306;55.744;37.578;2023-06-24T22:38:16;99745.09;;;26.30;30.63
42691;BME280;28306;55.744;37.578;2023-06-24T22:40:42;99743.50;;;26.29;30.74
42691;BME280;28306;55.744;37.578;2023-06-24T22:43:07;99748.09;;;26.28;30.70
42691;BME280;28306;55.744;37.578;2023-06-24T22:45:32;99750.84;;;26.28;30.78
42691;BME280;28306;55.744;37.578;2023-06-24T22:47:58;99750.03;;;26.28;30.62
42691;BME280;28306;55.744;37.578;2023-06-24T22:50:24;99754.41;;;26.29;30.82
42691;BME280;28306;55.744;37.578;2023-06-24T22:52:49;99758.22;;;26.28;30.69
42691;BME280;28306;55.744;37.578;2023-06-24T22:55:15;99757.41;;;26.27;30.68
42691;BME280;28306;55.744;37.578;2023-06-24T22:57:40;99758.22;;;26.28;30.81
42691;BME280;28306;55.744;37.578;2023-06-24T23:00:06;99762.84;;;26.27;30.50
42691;BME280;28306;55.744;37.578;2023-06-24T23:02:32;99760.13;;;26.27;30.64
42691;BME280;28306;55.744;37.578;2023-06-24T23:04:57;99760.13;;;26.27;30.65
42691;BME280;28306;55.744;37.578;2023-06-24T23:07:23;99767.47;;;26.26;30.80
42691;BME280;28306;55.744;37.578;2023-06-24T23:09:50;99771.31;;;26.25;30.80
42691;BME280;28306;55.744;37.578;2023-06-24T23:12:16;99781.38;;;26.25;30.64
42691;BME280;28306;55.744;37.578;2023-06-24T23:14:43;99788.75;;;26.24;30.84
42691;BME280;28306;55.744;37.578;2023-06-24T23:17:09;99791.75;;;26.23;30.91
42691;BME280;28306;55.744;37.578;2023-06-24T23:19:45;99795.56;;;26.22;30.74
42691;BME280;28306;55.744;37.578;2023-06-24T23:22:12;99797.47;;;26.21;30.93
42691;BME280;28306;55.744;37.578;2023-06-24T23:24:38;99796.66;;;26.21;30.74
42691;BME280;28306;55.744;37.578;2023-06-24T23:27:04;99798.56;;;26.20;30.85
42691;BME280;28306;55.744;37.578;2023-06-24T23:29:30;99791.47;;;26.19;30.98
42691;BME280;28306;55.744;37.578;2023-06-24T23:32:01;99797.22;;;26.18;30.83
42691;BME280;28306;55.744;37.578;2023-06-24T23:34:27;99799.94;;;26.18;30.81
42691;BME280;28306;55.744;37.578;2023-06-24T23:36:53;99809.47;;;26.15;30.93
42691;BME280;28306;55.744;37.578;2023-06-24T23:39:18;99811.13;;;26.16;30.76
42691;BME280;28306;55.744;37.578;2023-06-24T23:41:44;99813.00;;;26.16;30.83
42691;BME280;28306;55.744;37.578;2023-06-24T23:44:10;99817.66;;;26.15;30.74
42691;BME280;28306;55.744;37.578;2023-06-24T23:46:35;99820.38;;;26.15;30.75
42691;BME280;28306;55.744;37.578;2023-06-24T23:49:01;99810.28;;;26.16;30.89
42691;BME280;28306;55.744;37.578;2023-06-24T23:51:26;99816.84;;;26.15;30.71
42691;BME280;28306;55.744;37.578;2023-06-24T23:53:52;99812.19;;;26.15;30.90
42691;BME280;28306;55.744;37.578;2023-06-24T23:56:17;99811.38;;;26.15;30.76
42691;BME280;28306;55.744;37.578;2023-06-24T23:58:42;99810.53;;;26.14;30.76
